createdAt,value
2019-04-16T00:01:18.362Z,14.17
2019-04-16T00:03:53.634Z,12.17
2019-04-16T00:06:41.051Z,13.47
2019-04-16T00:09:17.875Z,10.80
2019-04-16T00:11:56.418Z,10.27
2019-04-16T00:14:35.166Z,11.10
2019-04-16T00:17:04.405Z,11.10
2019-04-16T00:19:34.731Z,11.80
2019-04-16T00:22:31.926Z,14.90
2019-04-16T00:25:00.907Z,10.00
2019-04-16T00:27:29.804Z,12.63
2019-04-16T00:30:03.914Z,10.80
2019-04-16T00:32:30.488Z,13.93
2019-04-16T00:34:59.381Z,17.30
2019-04-16T00:37:28.245Z,15.97
2019-04-16T00:39:57.350Z,11.80
2019-04-16T00:42:26.268Z,13.90
2019-04-16T00:44:55.086Z,17.33
2019-04-16T00:47:23.923Z,14.00
2019-04-16T00:49:57.754Z,17.03
2019-04-16T00:52:23.497Z,13.60
2019-04-16T00:54:52.629Z,13.00
2019-04-16T00:57:21.555Z,12.93
2019-04-16T00:59:54.997Z,14.43
2019-04-16T01:02:21.205Z,14.30
2019-04-16T01:04:50.061Z,12.43
2019-04-16T01:07:18.894Z,14.87
2019-04-16T01:09:48.206Z,13.90
2019-04-16T01:12:17.226Z,12.87
2019-04-16T01:14:46.174Z,12.07
2019-04-16T01:17:15.525Z,16.23
2019-04-16T01:19:44.861Z,11.97
2019-04-16T01:22:16.069Z,11.30
2019-04-16T01:24:44.353Z,14.17
2019-04-16T01:27:13.205Z,13.13
2019-04-16T01:29:42.023Z,12.73
2019-04-16T01:32:33.565Z,13.93
2019-04-16T01:35:24.417Z,13.93
2019-04-16T01:38:10.767Z,10.87
2019-04-16T01:40:50.209Z,12.90
2019-04-16T01:43:19.493Z,12.77
2019-04-16T01:45:48.495Z,11.93
2019-04-16T01:48:17.331Z,13.97
2019-04-16T01:50:46.445Z,14.83
2019-04-16T01:53:15.377Z,14.63
2019-04-16T01:55:44.369Z,18.37
2019-04-16T01:58:13.164Z,13.93
2019-04-16T02:00:42.454Z,13.63
2019-04-16T02:03:11.477Z,14.23
2019-04-16T02:05:40.465Z,13.23
2019-04-16T02:08:09.490Z,14.63
2019-04-16T02:10:39.111Z,13.47
2019-04-16T02:13:08.106Z,18.90
2019-04-16T02:15:37.125Z,13.43
2019-04-16T02:18:06.088Z,15.83
2019-04-16T02:20:38.457Z,13.40
2019-04-16T02:23:05.842Z,14.50
2019-04-16T02:25:34.702Z,14.57
2019-04-16T02:28:03.738Z,14.03
2019-04-16T02:30:37.343Z,13.53
2019-04-16T02:33:03.439Z,15.50
2019-04-16T02:35:32.397Z,12.90
2019-04-16T02:38:01.365Z,13.87
2019-04-16T02:40:30.305Z,15.57
2019-04-16T02:43:04.134Z,17.93
2019-04-16T02:45:29.946Z,13.27
2019-04-16T02:47:58.841Z,15.23
2019-04-16T02:50:37.491Z,14.43
2019-04-16T02:53:25.264Z,13.27
2019-04-16T02:56:04.782Z,12.50
2019-04-16T02:58:41.539Z,11.53
2019-04-16T03:01:20.852Z,15.93
2019-04-16T03:03:57.517Z,13.30
2019-04-16T03:06:26.507Z,14.40
2019-04-16T03:08:55.489Z,12.93
2019-04-16T03:11:24.460Z,11.93
2019-04-16T03:13:58.231Z,12.57
2019-04-16T03:16:31.054Z,11.73
2019-04-16T03:19:12.530Z,14.17
2019-04-16T03:21:41.537Z,13.53
2019-04-16T03:24:10.440Z,15.73
2019-04-16T03:26:39.337Z,13.73
2019-04-16T03:29:08.154Z,12.40
2019-04-16T03:31:36.986Z,13.67
2019-04-16T03:34:06.008Z,13.93
2019-04-16T03:36:35.316Z,14.70
2019-04-16T03:39:06.131Z,16.83
2019-04-16T03:41:35.113Z,14.77
2019-04-16T03:44:05.092Z,13.30
2019-04-16T03:46:34.282Z,13.87
2019-04-16T03:49:03.271Z,13.93
2019-04-16T03:51:32.666Z,15.70
2019-04-16T03:54:04.876Z,14.43
2019-04-16T03:56:33.506Z,15.27
2019-04-16T03:59:02.493Z,14.27
2019-04-16T04:01:31.345Z,16.27
2019-04-16T04:04:00.385Z,15.27
2019-04-16T04:06:29.262Z,13.63
2019-04-16T04:08:58.114Z,14.67
2019-04-16T04:11:27.065Z,16.23
2019-04-16T04:13:55.917Z,16.23
2019-04-16T04:16:24.916Z,14.63
2019-04-16T04:18:53.890Z,16.47
2019-04-16T04:21:22.790Z,14.13
2019-04-16T04:23:51.647Z,13.17
2019-04-16T04:26:20.461Z,14.50
2019-04-16T04:28:51.507Z,16.50
2019-04-16T04:31:19.999Z,17.80
2019-04-16T04:33:48.836Z,14.40
2019-04-16T04:36:19.581Z,13.60
2019-04-16T04:38:48.303Z,17.53
2019-04-16T04:41:20.161Z,15.90
2019-04-16T04:43:48.213Z,22.20
2019-04-16T04:46:17.223Z,20.77
2019-04-16T04:48:46.082Z,18.60
2019-04-16T04:51:15.160Z,19.20
2019-04-16T04:53:44.058Z,22.13
2019-04-16T04:56:13.174Z,17.00
2019-04-16T04:58:42.011Z,16.97
2019-04-16T05:01:13.625Z,12.43
2019-04-16T05:04:02.134Z,12.23
2019-04-16T05:06:33.798Z,16.53
2019-04-16T05:09:02.751Z,19.27
2019-04-16T05:11:31.599Z,19.83
2019-04-16T05:14:00.588Z,17.47
2019-04-16T05:16:31.574Z,17.40
2019-04-16T05:19:00.100Z,21.07
2019-04-16T05:21:29.025Z,16.17
2019-04-16T05:23:58.186Z,16.77
2019-04-16T05:26:27.194Z,18.97
2019-04-16T05:28:57.701Z,11.03
2019-04-16T05:31:26.762Z,18.30
2019-04-16T05:33:59.478Z,16.17
2019-04-16T05:36:26.339Z,15.27
2019-04-16T05:38:56.353Z,15.33
2019-04-16T05:41:25.531Z,14.40
2019-04-16T05:43:54.802Z,15.70
2019-04-16T05:46:23.832Z,13.80
2019-04-16T05:48:53.984Z,16.13
2019-04-16T05:51:23.949Z,16.30
2019-04-16T05:53:55.148Z,19.13
2019-04-16T05:56:48.418Z,17.97
2019-04-16T05:59:17.251Z,15.50
2019-04-16T06:01:51.063Z,15.40
2019-04-16T06:04:24.294Z,15.30
2019-04-16T06:06:50.649Z,14.23
2019-04-16T06:09:19.470Z,16.63
2019-04-16T06:11:48.435Z,12.83
2019-04-16T06:14:35.313Z,15.60
2019-04-16T06:17:32.899Z,16.20
2019-04-16T06:20:21.486Z,13.40
2019-04-16T06:23:18.667Z,10.77
2019-04-16T06:25:51.349Z,13.33
2019-04-16T06:28:38.353Z,16.73
2019-04-16T06:31:27.605Z,13.57
2019-04-16T06:34:14.514Z,16.23
2019-04-16T06:36:55.130Z,11.80
2019-04-16T06:39:33.767Z,17.53
2019-04-16T06:42:20.974Z,13.10
2019-04-16T06:44:52.946Z,11.83
2019-04-16T06:47:53.068Z,13.53
2019-04-16T06:50:43.861Z,11.67
2019-04-16T06:53:31.739Z,12.87
2019-04-16T06:56:37.389Z,23.00
2019-04-16T06:59:29.627Z,11.57
2019-04-16T07:02:12.265Z,12.20
2019-04-16T07:04:50.245Z,13.43
2019-04-16T07:07:50.341Z,13.63
2019-04-16T07:10:21.549Z,14.43
2019-04-16T07:12:50.535Z,12.43
2019-04-16T07:15:23.734Z,12.77
2019-04-16T07:17:50.200Z,18.47
2019-04-16T07:20:19.266Z,13.97
2019-04-16T07:22:52.690Z,13.70
2019-04-16T07:25:19.237Z,12.63
2019-04-16T07:28:00.522Z,11.43
2019-04-16T07:30:40.033Z,19.13
2019-04-16T07:33:24.037Z,13.00
2019-04-16T07:36:06.710Z,11.67
2019-04-16T07:38:50.633Z,14.80
2019-04-16T07:41:31.295Z,15.90
2019-04-16T07:44:12.373Z,13.87
2019-04-16T07:47:19.656Z,10.93
2019-04-16T07:50:01.849Z,11.80
2019-04-16T07:53:00.154Z,12.67
2019-04-16T07:55:40.926Z,12.70
2019-04-16T07:58:10.218Z,11.73
2019-04-16T08:00:41.400Z,13.33
2019-04-16T08:03:10.072Z,16.67
2019-04-16T08:05:41.016Z,13.03
2019-04-16T08:08:09.566Z,14.00
2019-04-16T08:10:38.585Z,13.10
2019-04-16T08:13:14.664Z,13.90
2019-04-16T08:15:43.624Z,14.33
2019-04-16T08:18:12.654Z,15.13
2019-04-16T08:20:41.662Z,12.82
2019-04-16T08:23:28.398Z,14.50
2019-04-16T08:26:03.170Z,14.65
2019-04-16T08:28:28.784Z,13.60
2019-04-16T08:30:58.023Z,15.30
2019-04-16T08:33:28.533Z,16.25
2019-04-16T08:35:57.781Z,13.48
2019-04-16T08:38:26.698Z,18.07
2019-04-16T08:40:55.613Z,17.90
2019-04-16T08:43:26.678Z,14.75
2019-04-16T08:45:55.397Z,16.12
2019-04-16T08:48:24.290Z,15.05
2019-04-16T08:50:57.889Z,15.30
2019-04-16T08:53:23.883Z,19.27
2019-04-16T08:55:52.730Z,17.73
2019-04-16T08:58:21.560Z,17.10
2019-04-16T09:00:50.891Z,14.93
2019-04-16T09:03:20.034Z,19.37
2019-04-16T09:05:49.117Z,20.40
2019-04-16T09:08:24.841Z,17.92
2019-04-16T09:10:53.682Z,20.12
2019-04-16T09:13:26.466Z,18.05
2019-04-16T09:15:55.501Z,17.45
2019-04-16T09:18:29.592Z,16.02
2019-04-16T09:20:58.483Z,15.95
2019-04-16T09:23:27.605Z,15.20
2019-04-16T09:26:13.563Z,17.55
2019-04-16T09:28:41.154Z,20.05
2019-04-16T09:31:30.780Z,19.85
2019-04-16T09:34:17.643Z,19.10
2019-04-16T09:37:01.157Z,15.95
2019-04-16T09:39:52.058Z,18.07
2019-04-16T09:42:20.927Z,18.65
2019-04-16T09:44:49.799Z,16.27
2019-04-16T09:47:18.721Z,19.30
2019-04-16T09:49:47.551Z,17.30
2019-04-16T09:52:16.506Z,16.15
2019-04-16T09:54:45.526Z,21.20
2019-04-16T09:57:14.462Z,17.77
2019-04-16T09:59:56.942Z,18.75
2019-04-16T10:02:29.002Z,18.73
2019-04-16T10:04:57.898Z,16.55
2019-04-16T10:07:26.939Z,17.90
2019-04-16T10:09:55.808Z,15.05
2019-04-16T10:12:25.104Z,18.85
2019-04-16T10:14:54.235Z,17.05
2019-04-16T10:17:23.166Z,16.82
2019-04-16T10:19:52.129Z,17.55
2019-04-16T10:22:21.175Z,16.82
2019-04-16T10:25:02.522Z,17.23
2019-04-16T10:27:39.524Z,15.78
2019-04-16T10:30:21.908Z,17.77
2019-04-16T10:32:50.847Z,19.87
2019-04-16T10:35:20.083Z,17.15
2019-04-16T10:37:48.939Z,19.17
2019-04-16T10:40:28.370Z,18.90
2019-04-16T10:43:15.081Z,20.12
2019-04-16T10:46:09.845Z,17.00
2019-04-16T10:49:13.124Z,22.45
2019-04-16T10:51:48.897Z,20.17
2019-04-16T10:54:43.120Z,17.27
2019-04-16T10:57:38.409Z,19.75
2019-04-16T11:00:20.248Z,17.17
2019-04-16T11:02:52.974Z,17.00
2019-04-16T11:05:56.781Z,19.27
2019-04-16T11:08:23.938Z,21.93
2019-04-16T11:10:53.061Z,17.70
2019-04-16T11:13:34.030Z,19.55
2019-04-16T11:16:09.342Z,19.35
2019-04-16T11:18:38.486Z,20.65
2019-04-16T11:21:08.411Z,18.37
2019-04-16T11:23:37.782Z,18.77
2019-04-16T11:26:06.855Z,18.62
2019-04-16T11:28:35.869Z,18.77
2019-04-16T11:31:07.467Z,21.37
2019-04-16T11:33:36.507Z,17.90
2019-04-16T11:36:17.352Z,20.52
2019-04-16T11:38:36.293Z,19.12
2019-04-16T11:41:05.329Z,19.52
2019-04-16T11:43:34.198Z,18.65
2019-04-16T11:46:03.390Z,17.55
2019-04-16T11:48:37.234Z,18.27
2019-04-16T11:51:03.365Z,17.98
2019-04-16T11:53:32.688Z,19.05
2019-04-16T11:56:01.737Z,20.70
2019-04-16T11:58:35.721Z,18.98
2019-04-16T12:01:23.259Z,17.05
2019-04-16T12:03:56.717Z,18.98
2019-04-16T12:06:50.974Z,16.45
2019-04-16T12:09:37.578Z,15.85
2019-04-16T12:12:11.581Z,16.50
2019-04-16T12:14:48.623Z,16.45
2019-04-16T12:17:44.103Z,16.57
2019-04-16T12:20:21.894Z,16.12
2019-04-16T12:22:59.797Z,14.28
2019-04-16T12:25:38.567Z,12.70
2019-04-16T12:28:35.891Z,13.50
2019-04-16T12:31:10.823Z,13.93
2019-04-16T12:34:08.663Z,15.72
2019-04-16T12:37:02.637Z,13.80
2019-04-16T12:39:49.577Z,14.23
2019-04-16T12:42:41.046Z,16.95
2019-04-16T12:45:25.606Z,13.68
2019-04-16T12:48:01.807Z,16.40
2019-04-16T12:50:39.110Z,11.28
2019-04-16T12:53:27.543Z,11.83
2019-04-16T12:56:21.701Z,14.00
2019-04-16T12:58:55.334Z,14.40
2019-04-16T13:01:46.030Z,13.85
2019-04-16T13:04:22.360Z,12.40
2019-04-16T13:06:59.169Z,10.75
2019-04-16T13:09:33.121Z,12.28
2019-04-16T13:12:14.450Z,11.60
2019-04-16T13:15:05.304Z,12.10
2019-04-16T13:17:52.292Z,15.10
2019-04-16T13:20:46.493Z,13.03
2019-04-16T13:23:22.609Z,12.43
2019-04-16T13:26:00.050Z,11.22
2019-04-16T13:28:29.347Z,8.48
2019-04-16T13:30:58.293Z,8.05
2019-04-16T13:33:27.214Z,8.53
2019-04-16T13:35:56.097Z,8.03
2019-04-16T13:38:26.051Z,11.08
2019-04-16T13:40:55.042Z,12.05
2019-04-16T13:43:28.770Z,9.48
2019-04-16T13:45:58.085Z,8.70
2019-04-16T13:48:38.009Z,9.10
2019-04-16T13:51:14.901Z,7.50
2019-04-16T13:54:03.168Z,7.62
2019-04-16T13:56:50.406Z,8.28
2019-04-16T13:59:49.373Z,8.58
2019-04-16T14:02:36.011Z,7.55
2019-04-16T14:05:05.767Z,11.78
2019-04-16T14:07:34.702Z,7.97
2019-04-16T14:10:03.811Z,8.20
2019-04-16T14:12:41.925Z,8.60
2019-04-16T14:15:06.292Z,9.23
2019-04-16T14:17:36.474Z,8.15
2019-04-16T14:20:08.633Z,7.62
2019-04-16T14:22:36.679Z,8.23
2019-04-16T14:25:07.058Z,7.58
2019-04-16T14:27:35.982Z,9.45
2019-04-16T14:30:11.425Z,7.40
2019-04-16T14:32:40.655Z,8.45
2019-04-16T14:35:12.717Z,8.70
2019-04-16T14:37:41.731Z,8.98
2019-04-16T14:40:30.029Z,10.13
2019-04-16T14:42:59.214Z,9.23
2019-04-16T14:45:38.341Z,9.35
2019-04-16T14:48:08.255Z,9.20
2019-04-16T14:50:34.710Z,11.57
2019-04-16T14:53:03.751Z,8.63
2019-04-16T14:55:43.708Z,10.98
2019-04-16T14:58:32.018Z,7.83
2019-04-16T15:01:19.291Z,9.28
2019-04-16T15:04:06.242Z,8.28
2019-04-16T15:06:53.629Z,8.25
2019-04-16T15:09:41.741Z,11.20
2019-04-16T15:12:35.734Z,9.70
2019-04-16T15:15:20.156Z,11.75
2019-04-16T15:18:12.026Z,8.65
2019-04-16T15:21:02.623Z,9.90
2019-04-16T15:23:54.478Z,9.05
2019-04-16T15:26:31.815Z,10.38
2019-04-16T15:29:08.239Z,9.93
2019-04-16T15:32:06.070Z,9.65
2019-04-16T15:34:41.845Z,8.30
2019-04-16T15:37:17.671Z,10.32
2019-04-16T15:39:50.474Z,9.23
2019-04-16T15:42:29.558Z,12.33
2019-04-16T15:45:08.463Z,10.30
2019-04-16T15:48:04.435Z,9.63
2019-04-16T15:50:55.437Z,6.95
2019-04-16T15:53:42.558Z,7.33
2019-04-16T15:56:30.621Z,8.30
2019-04-16T15:59:24.504Z,11.20
2019-04-16T16:02:21.430Z,7.62
2019-04-16T16:04:59.445Z,10.35
2019-04-16T16:07:32.375Z,6.80
2019-04-16T16:10:18.499Z,5.83
2019-04-16T16:12:47.525Z,6.03
2019-04-16T16:15:16.597Z,4.93
2019-04-16T16:17:45.647Z,4.22
2019-04-16T16:20:14.939Z,2.80
2019-04-16T16:22:43.894Z,2.23
2019-04-16T16:25:12.829Z,3.90
2019-04-16T16:27:46.714Z,1.53
2019-04-16T16:30:15.070Z,3.13
2019-04-16T16:32:43.225Z,4.27
2019-04-16T16:35:16.980Z,1.57
2019-04-16T16:37:42.773Z,3.43
2019-04-16T16:40:14.757Z,1.07
2019-04-16T16:42:42.691Z,2.40
2019-04-16T16:45:12.098Z,1.40
2019-04-16T16:47:41.376Z,1.10
2019-04-16T16:50:14.705Z,0.70
2019-04-16T16:52:51.326Z,3.00
2019-04-16T16:55:30.175Z,1.10
2019-04-16T16:58:11.025Z,1.83
2019-04-16T17:01:07.914Z,0.77
2019-04-16T17:03:58.146Z,0.80
2019-04-16T17:06:27.378Z,0.87
2019-04-16T17:08:56.289Z,0.73
2019-04-16T17:11:25.150Z,0.83
2019-04-16T17:13:54.726Z,4.33
2019-04-16T17:16:23.759Z,0.83
2019-04-16T17:18:52.666Z,0.70
2019-04-16T17:21:21.541Z,0.80
2019-04-16T17:23:50.742Z,1.37
2019-04-16T17:26:19.663Z,2.40
2019-04-16T17:28:48.500Z,1.60
2019-04-16T17:31:17.483Z,0.80
2019-04-16T17:33:46.571Z,0.73
2019-04-16T17:36:15.384Z,1.30
2019-04-16T17:38:44.286Z,1.20
2019-04-16T17:41:16.902Z,2.77
2019-04-16T17:44:08.001Z,2.90
2019-04-16T17:47:01.330Z,1.53
2019-04-16T17:50:05.105Z,3.20
2019-04-16T17:52:56.007Z,0.77
2019-04-16T17:55:35.554Z,0.93
2019-04-16T17:58:10.950Z,1.30
2019-04-16T18:00:55.579Z,4.80
2019-04-16T18:03:37.023Z,1.10
2019-04-16T18:06:14.126Z,1.03
2019-04-16T18:09:07.531Z,1.90
2019-04-16T18:11:44.708Z,0.97
2019-04-16T18:14:32.917Z,0.93
2019-04-16T18:17:16.725Z,0.90
2019-04-16T18:20:12.599Z,1.77
2019-04-16T18:22:50.676Z,1.40
2019-04-16T18:25:36.847Z,2.20
2019-04-16T18:28:10.897Z,2.60
2019-04-16T18:30:44.720Z,1.20
2019-04-16T18:33:31.394Z,1.57
2019-04-16T18:36:04.430Z,1.50
2019-04-16T18:39:04.956Z,1.70
2019-04-16T18:41:39.403Z,1.60
2019-04-16T18:44:42.689Z,1.70
2019-04-16T18:47:29.414Z,4.30
2019-04-16T18:50:00.706Z,1.57
2019-04-16T18:52:29.477Z,1.40
2019-04-16T18:54:58.747Z,2.60
2019-04-16T18:57:27.697Z,2.90
2019-04-16T18:59:56.821Z,2.13
2019-04-16T19:02:27.727Z,2.57
2019-04-16T19:04:56.591Z,8.20
2019-04-16T19:07:25.425Z,3.87
2019-04-16T19:09:54.336Z,1.80
2019-04-16T19:12:23.329Z,1.83
2019-04-16T19:14:52.447Z,2.40
2019-04-16T19:17:21.575Z,1.77
2019-04-16T19:19:50.594Z,2.07
2019-04-16T19:22:19.731Z,2.00
2019-04-16T19:24:48.722Z,3.63
2019-04-16T19:27:17.638Z,1.87
2019-04-16T19:29:46.596Z,3.33
2019-04-16T19:32:15.621Z,2.10
2019-04-16T19:34:44.593Z,2.00
2019-04-16T19:37:13.698Z,4.23
2019-04-16T19:39:43.806Z,2.17
2019-04-16T19:42:13.245Z,2.90
2019-04-16T19:44:42.210Z,2.57
2019-04-16T19:47:11.117Z,1.80
2019-04-16T19:49:40.047Z,4.10
2019-04-16T19:52:08.968Z,3.53
2019-04-16T19:54:37.816Z,12.83
2019-04-16T19:57:06.798Z,13.43
2019-04-16T19:59:35.822Z,12.00
2019-04-16T20:02:04.818Z,9.40
2019-04-16T20:04:33.871Z,11.00
2019-04-16T20:07:02.633Z,10.80
2019-04-16T20:09:31.659Z,8.03
2019-04-16T20:12:00.649Z,9.03
2019-04-16T20:14:29.682Z,8.63
2019-04-16T20:16:58.564Z,11.67
2019-04-16T20:19:27.354Z,13.70
2019-04-16T20:21:56.372Z,11.17
2019-04-16T20:24:25.262Z,10.17
2019-04-16T20:26:54.281Z,9.90
2019-04-16T20:29:23.263Z,9.80
2019-04-16T20:31:52.293Z,5.63
2019-04-16T20:34:21.201Z,6.90
2019-04-16T20:36:52.161Z,6.77
2019-04-16T20:39:20.773Z,5.43
2019-04-16T20:41:52.710Z,6.80
2019-04-16T20:44:20.274Z,6.03
2019-04-16T20:46:49.093Z,6.60
2019-04-16T20:49:17.994Z,6.53
2019-04-16T20:51:46.837Z,5.10
2019-04-16T20:54:15.695Z,6.33
2019-04-16T20:56:44.677Z,6.93
2019-04-16T20:59:13.624Z,6.53
2019-04-16T21:01:42.546Z,6.57
2019-04-16T21:04:11.384Z,5.90
2019-04-16T21:06:41.950Z,5.53
2019-04-16T21:09:12.425Z,5.70
2019-04-16T21:11:41.918Z,4.70
2019-04-16T21:14:10.898Z,5.40
2019-04-16T21:16:39.718Z,5.90
2019-04-16T21:19:22.455Z,5.87
2019-04-16T21:21:39.125Z,4.43
2019-04-16T21:24:08.974Z,5.43
2019-04-16T21:26:38.439Z,3.93
2019-04-16T21:29:33.373Z,5.13
2019-04-16T21:32:03.331Z,4.53
2019-04-16T21:34:50.740Z,3.97
2019-04-16T21:37:37.598Z,4.17
2019-04-16T21:40:07.040Z,4.83
2019-04-16T21:42:35.892Z,3.90
2019-04-16T21:45:06.496Z,4.33
2019-04-16T21:47:35.490Z,4.97
2019-04-16T21:50:04.658Z,4.83
2019-04-16T21:52:33.530Z,3.93
2019-04-16T21:55:04.659Z,6.23
2019-04-16T21:57:33.292Z,5.40
2019-04-16T22:00:02.658Z,8.73
2019-04-16T22:02:37.868Z,6.60
2019-04-16T22:05:08.925Z,4.43
2019-04-16T22:07:37.906Z,4.20
2019-04-16T22:10:07.263Z,3.93
2019-04-16T22:12:36.232Z,4.33
2019-04-16T22:15:06.065Z,4.60
2019-04-16T22:17:35.783Z,4.00
2019-04-16T22:20:06.340Z,6.47
2019-04-16T22:22:35.257Z,4.33
2019-04-16T22:25:04.291Z,4.63
2019-04-16T22:27:33.145Z,3.70
2019-04-16T22:30:02.170Z,4.10
2019-04-16T22:32:31.371Z,4.23
2019-04-16T22:35:00.231Z,4.20
2019-04-16T22:37:29.409Z,3.63
2019-04-16T22:40:16.384Z,4.07
2019-04-16T22:43:13.657Z,3.43
2019-04-16T22:46:01.635Z,3.50
2019-04-16T22:48:30.554Z,3.40
2019-04-16T22:50:59.434Z,5.43
2019-04-16T22:53:28.291Z,5.63
2019-04-16T22:55:58.097Z,6.47
2019-04-16T22:58:46.809Z,6.63
2019-04-16T23:01:18.914Z,6.97
2019-04-16T23:03:49.786Z,5.83
2019-04-16T23:06:18.898Z,4.17
2019-04-16T23:08:47.974Z,3.37
2019-04-16T23:11:16.969Z,3.63
2019-04-16T23:13:45.879Z,3.83
2019-04-16T23:16:15.033Z,3.73
2019-04-16T23:18:48.796Z,3.33
2019-04-16T23:21:14.619Z,3.97
2019-04-16T23:23:43.575Z,3.10
2019-04-16T23:26:12.429Z,4.07
2019-04-16T23:28:42.443Z,3.80
2019-04-16T23:31:12.119Z,5.10
2019-04-16T23:33:41.107Z,6.20
2019-04-16T23:36:15.427Z,8.83
2019-04-16T23:38:40.722Z,6.93
2019-04-16T23:41:15.535Z,4.37
2019-04-16T23:43:59.294Z,4.50
2019-04-16T23:46:46.200Z,4.83
2019-04-16T23:49:37.843Z,9.00
2019-04-16T23:52:12.778Z,4.97
2019-04-16T23:55:00.776Z,6.17
2019-04-16T23:57:53.599Z,9.23
